Flight Track Log - Related Links

Times and Time Zones

All times are in EDT time to prevent confusion due to time zone crossing. See the SWA204 flight status page for this flight to view local times or setup timezone preferences in your user account.

Time Position Orientation Groundspeed Altitude Reporting Facility
EDT Latitude Longitude Course Direction KTS MPH feet Rate Location/Type
Thu 12:29:23 PM 29.5503 -98.4439 56° Northeast 176 203 1,800  Level Houston Center
Thu 12:29:58 PM 29.5667 -98.4156 56° Northeast 179 206 3,200 2,227 Climbing Houston Center
Thu 12:31:00 PM 29.5372 -98.3542 119° Southeast 221 254 5,400 2,516 Climbing Houston Center
Thu 12:32:02 PM 29.5469 -98.2658 83° East 285 328 8,400 2,640 Climbing Houston Center
Thu 12:33:05 PM 29.5808 -98.1814 65° Northeast 291 335 10,900 2,565 Climbing Houston Center
Thu 12:34:06 PM 29.6267 -98.0767 63° Northeast 342 394 13,700 2,585 Climbing Houston Center
Thu 12:35:08 PM 29.6511 -97.9714 75° East 348 400 16,200 2,226 Climbing Houston Center
Thu 12:36:10 PM 29.6525 -97.8489 89° East 358 412 18,300 1,935 Climbing Houston Center
Thu 12:37:12 PM 29.6544 -97.7361 89° East 377 434 20,200 1,872 Climbing Houston Center
Thu 12:38:15 PM 29.6564 -97.6125 89° East 383 441 22,200 1,728 Climbing Houston Center
Thu 12:39:17 PM 29.6572 -97.4886 90° East 387 445 23,800 1,548 Climbing Houston Center
Thu 12:40:19 PM 29.6578 -97.3583 90° East 404 465 25,400 1,500 Climbing Houston Center
Thu 12:41:21 PM 29.6592 -97.1958 89° East 419 482 26,900 774 Climbing Houston Center
Thu 12:42:23 PM 29.6269 -97.0656 106° East 427 491 27,000 48 Climbing Houston Center
Thu 12:43:25 PM 29.5344 -96.9789 141° Southeast 427 491 27,000 -48 Level Houston Center
Thu 12:44:27 PM 29.4375 -96.9011 145° Southeast 424 488 26,900 -816 Descending Houston Center
Thu 12:45:30 PM 29.3339 -96.8164 145° Southeast 419 482 25,300 -1,632 Descending Houston Center
Thu 12:46:32 PM 29.2864 -96.7106 117° Southeast 419 482 23,500 -1,984 Descending Houston Center
Thu 12:47:34 PM 29.2914 -96.5850 87° East 403 464 21,200 -2,177 Descending Houston Center
Thu 12:48:36 PM 29.2944 -96.4647 88° East 387 445 19,000 -2,274 Descending Houston Center
Thu 12:49:38 PM 29.2972 -96.3275 89° East 368 423 16,500 -2,262 Descending Houston Center
Thu 12:50:38 PM 29.2986 -96.2231 89° East 342 394 14,400 -2,033 Descending Houston Center
Thu 12:51:39 PM 29.3014 -96.1103 88° East 328 377 12,400 -1,659 Descending Houston Center
Thu 12:52:41 PM 29.3186 -96.0172 78° East 305 351 11,000 -1,366 Descending Houston Center
Thu 12:53:42 PM 29.3706 -95.9394 53° Northeast 285 328 9,600 -1,366 Descending Houston Center
Thu 12:54:44 PM 29.4186 -95.8644 54° Northeast 285 328 8,200 -1,561 Descending Houston Center
Thu 12:55:45 PM 29.4644 -95.7897 55° Northeast 288 331 6,400 -1,082 Descending Houston Center
Thu 12:56:46 PM 29.5081 -95.7150 56° Northeast 247 284 6,000 -205 Descending Houston Center
Thu 12:57:42 PM 29.5428 -95.6558 56° Northeast 240 276 6,000 -92 Level Houston Center
Thu 12:58:57 PM 29.5867 -95.5850 55° Northeast 239 275 5,800 -750 Descending Houston Center
Thu 12:59:50 PM 29.6250 -95.5211 55° Northeast 238 274 4,400 -1,368 Descending Houston Center
Thu 01:00:51 PM 29.6614 -95.4592 56° Northeast 232 267 3,200 -1,116 Descending Houston Center
Thu 01:01:59 PM 29.6908 -95.3883 64° Northeast 223 257 2,000 -977 Descending Houston Center
Thu 01:03:00 PM 29.6872 -95.3286 94° East 170 196 1,100 -828 Descending Houston Center
Thu 01:03:55 PM 29.6594 -95.2983 137° Southeast 141 162 400 -764 Descending Houston Center

Login

Don't have an account? Register now (free) for customized features, flight alerts, and more!